Monmouth, Maine
Current Conditions -  °F | °C
As of 11:23 AM on Friday 24 Oct 2014 (Local Time) from KAUG Reporting Station
Light Rain Light Rain  
Wind Chill: 40°   Ceiling: 700
Heat Index: 46°   Visibility: 2mi
Dew Point: 44°   Wind: 14mph
Humidity: 93%   Direction: 350°N
Pressure: 29.7"   Gusts: 22mph
Location:  44.24°N, 70.04°W
Report Text: KAUG 241523Z AUTO 35012G19KT 2SM -RA BR BKN007 OVC011 08/07 A2970 RMK AO2 RAB15 P0001 T00780067
Loading
Personal Weather Stations






























Interactive Weather Map
Tropical Storm Tracking
New forecast layout! Learn more

10-Day Weather Forecast

Advertisements
Track Severe Weather on mobile